Time;durP1;ratioP1;P1;durP2;ratioP2;P2;SDS_P1;SDS_P2;PMS_P1;PMS_P2;Temp;Humidity;BMP_temperature;BMP_pressure;BME280_temperature;BME280_humidity;BME280_pressure;Samples;Min_cycle;Max_cycle;Signal;HPM_P1;HPM_P2
2022/04/16 00:00:56;;;;;;;11.52;7.13;;;14.80;99.90;;;;;;5018883;28;20061;-76
2022/04/16 00:03:23;;;;;;;11.10;6.47;;;14.70;99.90;;;;;;5019099;28;20026;-75
2022/04/16 00:05:56;;;;;;;10.75;6.90;;;14.70;99.90;;;;;;5019084;28;20057;-76
2022/04/16 00:08:27;;;;;;;13.98;6.45;;;14.60;99.90;;;;;;5017985;28;20026;-76
2022/04/16 00:10:54;;;;;;;9.48;6.22;;;14.60;99.90;;;;;;5017369;28;20033;-75
2022/04/16 00:13:21;;;;;;;8.50;5.72;;;14.50;99.90;;;;;;5017740;28;20022;-76
2022/04/16 00:15:52;;;;;;;13.10;6.80;;;14.50;99.90;;;;;;5017491;28;20111;-75
2022/04/16 00:18:18;;;;;;;6.93;6.10;;;14.50;99.90;;;;;;5018951;28;20022;-75
2022/04/16 00:20:45;;;;;;;9.93;6.68;;;14.50;99.90;;;;;;5018681;28;20405;-74
2022/04/16 00:23:12;;;;;;;11.70;6.93;;;14.40;99.90;;;;;;5017105;28;20026;-74
2022/04/16 00:25:37;;;;;;;13.45;6.90;;;14.30;99.90;;;;;;5017403;28;20045;-75
2022/04/16 00:28:04;;;;;;;12.07;6.93;;;14.30;99.90;;;;;;5018774;28;20429;-75
2022/04/16 00:30:37;;;;;;;18.65;7.40;;;14.30;99.90;;;;;;5016313;28;20117;-74
2022/04/16 00:33:05;;;;;;;11.88;6.28;;;14.20;99.90;;;;;;5018364;28;20392;-75
2022/04/16 00:35:31;;;;;;;10.25;6.88;;;14.20;99.90;;;;;;5017175;28;20056;-74
2022/04/16 00:37:57;;;;;;;9.93;6.63;;;14.20;99.90;;;;;;5019016;28;20026;-74
2022/04/16 00:40:22;;;;;;;16.52;7.38;;;14.20;99.90;;;;;;5017448;28;20091;-74
2022/04/16 00:42:50;;;;;;;15.48;7.55;;;14.20;99.90;;;;;;5018813;28;20018;-75
2022/04/16 00:45:16;;;;;;;10.77;6.88;;;14.20;99.90;;;;;;5018701;28;20108;-75
2022/04/16 00:47:45;;;;;;;11.23;6.55;;;14.20;99.90;;;;;;5017013;28;20153;-75
2022/04/16 00:50:11;;;;;;;15.75;6.95;;;14.10;99.90;;;;;;5018463;28;20048;-76
2022/04/16 00:52:38;;;;;;;9.82;7.03;;;14.10;99.90;;;;;;5017704;28;20044;-75
2022/04/16 00:55:06;;;;;;;10.60;6.97;;;14.10;99.90;;;;;;5018238;28;20030;-76
2022/04/16 00:57:32;;;;;;;12.38;7.25;;;14.00;99.90;;;;;;5018096;28;20097;-75
2022/04/16 01:00:01;;;;;;;12.23;8.40;;;14.10;99.90;;;;;;5017958;28;20030;-76
2022/04/16 01:02:27;;;;;;;17.15;8.45;;;14.10;99.90;;;;;;5000364;28;20076;-76
2022/04/16 01:04:54;;;;;;;18.02;8.60;;;14.00;99.90;;;;;;5017436;28;20026;-75
2022/04/16 01:07:24;;;;;;;11.50;6.90;;;14.00;99.90;;;;;;5017648;28;20052;-75
2022/04/16 01:09:51;;;;;;;11.77;7.28;;;14.00;99.90;;;;;;5017994;28;20124;-76
2022/04/16 01:12:17;;;;;;;10.43;7.18;;;13.90;99.90;;;;;;5016764;28;20033;-75
2022/04/16 01:14:45;;;;;;;12.57;7.20;;;13.90;99.90;;;;;;5000305;28;20030;-76
2022/04/16 01:17:15;;;;;;;11.60;8.52;;;13.90;99.90;;;;;;5000396;28;20044;-75
2022/04/16 01:19:41;;;;;;;12.90;8.52;;;13.80;99.90;;;;;;5017711;28;20033;-75
2022/04/16 01:22:11;;;;;;;13.27;8.25;;;13.80;99.90;;;;;;4999715;28;20021;-75
2022/04/16 01:24:38;;;;;;;11.53;8.30;;;13.80;99.90;;;;;;5000158;28;20116;-75
2022/04/16 01:27:05;;;;;;;13.45;9.07;;;13.70;99.90;;;;;;5000110;28;20032;-74
2022/04/16 01:29:31;;;;;;;11.77;7.82;;;13.70;99.90;;;;;;5017849;28;20033;-75
2022/04/16 01:31:57;;;;;;;10.57;7.68;;;13.60;99.90;;;;;;5017419;28;20037;-75
2022/04/16 01:34:25;;;;;;;18.70;9.18;;;13.60;99.90;;;;;;5017542;28;20490;-75
2022/04/16 01:36:52;;;;;;;15.50;8.90;;;13.60;99.90;;;;;;5017097;28;20432;-75
2022/04/16 01:39:18;;;;;;;13.57;9.40;;;13.50;99.90;;;;;;5017493;28;20024;-75
2022/04/16 01:41:44;;;;;;;12.60;9.20;;;13.50;99.90;;;;;;5017159;28;20026;-75
2022/04/16 01:44:11;;;;;;;15.65;9.65;;;13.50;99.90;;;;;;5017855;28;20026;-76
2022/04/16 01:46:37;;;;;;;14.75;9.68;;;13.40;99.90;;;;;;5017294;28;20018;-75
2022/04/16 01:49:03;;;;;;;19.35;9.10;;;13.40;99.90;;;;;;4999919;28;20036;-75
2022/04/16 01:51:29;;;;;;;19.92;10.55;;;13.40;99.90;;;;;;5016945;28;20052;-75
2022/04/16 01:53:55;;;;;;;10.75;9.05;;;13.30;99.90;;;;;;5016955;28;20065;-75
2022/04/16 01:56:21;;;;;;;16.08;8.50;;;13.30;99.90;;;;;;4999488;28;20161;-74
2022/04/16 01:58:46;;;;;;;13.02;8.48;;;13.30;99.90;;;;;;5017294;28;20034;-76
2022/04/16 02:01:12;;;;;;;13.35;8.57;;;13.30;99.90;;;;;;5017021;28;20025;-75
2022/04/16 02:03:38;;;;;;;12.13;7.90;;;13.20;99.90;;;;;;4999612;28;20022;-74
2022/04/16 02:06:05;;;;;;;12.40;9.40;;;13.20;99.90;;;;;;5017152;28;20018;-76
2022/04/16 02:08:31;;;;;;;11.73;9.93;;;13.20;99.90;;;;;;4999702;28;20028;-75
2022/04/16 02:10:57;;;;;;;20.10;10.07;;;13.10;99.90;;;;;;5016971;28;20034;-75
2022/04/16 02:13:23;;;;;;;16.25;9.43;;;13.10;99.90;;;;;;5017184;28;20037;-76
2022/04/16 02:15:49;;;;;;;16.13;10.23;;;13.10;99.90;;;;;;5018957;28;20490;-75
2022/04/16 02:18:15;;;;;;;12.82;9.52;;;13.00;99.90;;;;;;5021169;28;20048;-76
2022/04/16 02:20:41;;;;;;;16.75;9.60;;;13.00;99.90;;;;;;5003473;28;20121;-75
2022/04/16 02:23:09;;;;;;;15.45;9.45;;;12.90;99.90;;;;;;5020768;28;20010;-74
2022/04/16 02:25:35;;;;;;;15.52;9.10;;;12.90;99.90;;;;;;5003533;28;20033;-75
2022/04/16 02:28:01;;;;;;;20.67;11.05;;;12.90;99.90;;;;;;5020993;28;20041;-74
2022/04/16 02:30:30;;;;;;;13.18;9.90;;;12.80;99.90;;;;;;5020880;28;20449;-74
2022/04/16 02:32:56;;;;;;;15.60;10.05;;;12.80;99.90;;;;;;5003105;28;20056;-75
2022/04/16 02:35:23;;;;;;;13.30;9.68;;;12.80;99.90;;;;;;5020800;28;20409;-75
2022/04/16 02:37:49;;;;;;;15.20;10.52;;;12.80;99.90;;;;;;5003097;28;20026;-74
2022/04/16 02:40:16;;;;;;;12.68;9.65;;;12.80;99.90;;;;;;5003066;28;20034;-75
2022/04/16 02:42:43;;;;;;;14.68;10.73;;;12.70;99.90;;;;;;5020663;28;20033;-74
2022/04/16 02:47:58;;;;;;;18.63;10.65;;;12.70;99.90;;;;;;5020406;28;20025;-76
2022/04/16 02:50:25;;;;;;;13.90;9.50;;;12.70;99.90;;;;;;5003045;28;20557;-74
2022/04/16 02:52:58;;;;;;;17.00;11.10;;;12.70;99.90;;;;;;5020184;28;20038;-74
2022/04/16 02:55:26;;;;;;;18.13;11.45;;;12.70;99.90;;;;;;5020273;28;20065;-75
2022/04/16 02:57:52;;;;;;;16.98;10.07;;;12.60;99.90;;;;;;5020138;28;20034;-74
2022/04/16 03:00:20;;;;;;;17.95;10.23;;;12.60;99.90;;;;;;5020173;28;20466;-75
2022/04/16 03:02:47;;;;;;;15.20;11.00;;;12.60;99.90;;;;;;5002516;28;20022;-73
2022/04/16 03:05:13;;;;;;;14.60;10.52;;;12.50;99.90;;;;;;5002583;28;20022;-75
2022/04/16 03:07:39;;;;;;;17.60;10.57;;;12.60;99.90;;;;;;5002484;28;20033;-74
2022/04/16 03:10:08;;;;;;;18.38;10.30;;;12.50;99.90;;;;;;5002393;28;20093;-74
2022/04/16 03:12:48;;;;;;;14.52;10.80;;;12.50;99.90;;;;;;5001751;28;20029;-74
2022/04/16 03:18:01;;;;;;;16.35;11.25;;;12.50;99.90;;;;;;5020257;28;20137;-76
2022/04/16 03:20:29;;;;;;;17.73;11.52;;;12.40;99.90;;;;;;5019754;28;20056;-74
2022/04/16 03:22:56;;;;;;;18.70;11.27;;;12.40;99.90;;;;;;5002005;28;20176;-74
2022/04/16 03:25:22;;;;;;;16.17;11.20;;;12.40;99.90;;;;;;5019821;28;20527;-75
2022/04/16 03:27:48;;;;;;;16.20;11.32;;;12.40;99.90;;;;;;5001594;28;20454;-76
2022/04/16 03:30:14;;;;;;;16.98;11.63;;;12.30;99.90;;;;;;5001960;28;20489;-75
2022/04/16 03:32:42;;;;;;;23.27;12.43;;;12.30;99.90;;;;;;5019698;28;20456;-74
2022/04/16 03:35:08;;;;;;;18.13;12.75;;;12.30;99.90;;;;;;5019571;28;20505;-75
2022/04/16 03:37:37;;;;;;;21.95;11.35;;;12.30;99.90;;;;;;5001816;28;20054;-74
2022/04/16 03:40:05;;;;;;;17.40;11.52;;;12.30;99.90;;;;;;5019480;28;20030;-75
2022/04/16 03:42:34;;;;;;;19.67;11.98;;;12.30;99.90;;;;;;5002003;28;20022;-74
2022/04/16 03:45:00;;;;;;;21.90;11.23;;;12.30;99.90;;;;;;5001747;28;20049;-75
2022/04/16 03:47:29;;;;;;;14.65;11.15;;;12.20;99.90;;;;;;5002032;28;20103;-74
2022/04/16 03:49:55;;;;;;;16.02;11.85;;;12.20;99.90;;;;;;5001632;28;20030;-74
2022/04/16 03:52:21;;;;;;;18.85;12.88;;;12.20;99.90;;;;;;5019065;28;20101;-76
2022/04/16 04:00:17;;;;;;;17.17;12.02;;;12.10;99.90;;;;;;5019086;28;20159;-75
2022/04/16 04:02:43;;;;;;;18.98;12.00;;;12.10;99.90;;;;;;5001454;28;20393;-75
2022/04/16 04:05:09;;;;;;;13.95;11.65;;;12.10;99.90;;;;;;5018076;28;20605;-75
2022/04/16 04:07:35;;;;;;;22.23;12.90;;;12.00;99.90;;;;;;5001024;28;20057;-75
2022/04/16 04:10:02;;;;;;;22.83;13.35;;;12.00;99.90;;;;;;5001264;28;20029;-75
2022/04/16 04:12:28;;;;;;;21.52;13.63;;;12.00;99.90;;;;;;5018792;28;20109;-75
2022/04/16 04:14:54;;;;;;;18.85;12.43;;;12.00;99.90;;;;;;5019268;28;20085;-75
2022/04/16 04:17:20;;;;;;;21.55;12.70;;;11.90;99.90;;;;;;5018865;28;20034;-76
2022/04/16 04:19:47;;;;;;;21.63;12.40;;;11.90;99.90;;;;;;5001081;28;20437;-75
2022/04/16 04:22:15;;;;;;;18.00;13.32;;;11.90;99.90;;;;;;5000651;28;20032;-76
2022/04/16 04:24:42;;;;;;;20.30;13.00;;;11.90;99.90;;;;;;5001302;28;20021;-76
2022/04/16 04:27:08;;;;;;;19.00;11.60;;;11.90;99.90;;;;;;5001180;28;20026;-75
2022/04/16 04:29:35;;;;;;;14.95;12.90;;;11.80;99.90;;;;;;5000338;28;20022;-74
2022/04/16 04:32:01;;;;;;;18.50;12.15;;;11.80;99.90;;;;;;5018050;28;20045;-74
2022/04/16 04:34:27;;;;;;;20.10;11.90;;;11.80;99.90;;;;;;5017821;28;20018;-75
2022/04/16 04:36:53;;;;;;;22.88;11.48;;;11.80;99.90;;;;;;4999895;28;20390;-74
2022/04/16 04:39:19;;;;;;;21.05;12.60;;;11.70;99.90;;;;;;5016904;28;20029;-74
2022/04/16 04:41:46;;;;;;;20.80;13.15;;;11.80;99.90;;;;;;5000159;28;20018;-75
2022/04/16 04:44:15;;;;;;;23.65;14.30;;;11.70;99.90;;;;;;5017885;28;20025;-74
2022/04/16 04:46:42;;;;;;;14.80;11.63;;;11.70;99.90;;;;;;5000145;28;20381;-74
2022/04/16 04:49:08;;;;;;;23.40;13.00;;;11.70;99.90;;;;;;5017564;28;20105;-75
2022/04/16 04:51:35;;;;;;;17.67;13.23;;;11.60;99.90;;;;;;5017268;28;20088;-74
2022/04/16 04:54:02;;;;;;;23.20;14.15;;;11.60;99.90;;;;;;4999996;28;20069;-75
2022/04/16 04:56:29;;;;;;;18.00;13.40;;;11.60;99.90;;;;;;5017202;28;20034;-75
2022/04/16 04:58:55;;;;;;;17.67;13.90;;;11.50;99.90;;;;;;5017294;28;20113;-74
2022/04/16 05:01:21;;;;;;;20.20;14.18;;;11.40;99.90;;;;;;5017409;28;20536;-75
2022/04/16 05:03:46;;;;;;;19.60;14.85;;;11.40;99.90;;;;;;4999654;28;20112;-75
2022/04/16 05:06:12;;;;;;;23.67;14.75;;;11.40;99.90;;;;;;4993444;28;20465;-74
2022/04/16 05:08:38;;;;;;;23.30;14.32;;;11.40;99.90;;;;;;4983189;28;20975;-75
2022/04/16 05:11:04;;;;;;;19.70;15.88;;;11.30;99.90;;;;;;4998415;28;20076;-74
2022/04/16 05:13:30;;;;;;;25.25;15.38;;;11.30;99.90;;;;;;5017093;28;20030;-74
2022/04/16 05:15:56;;;;;;;22.10;16.48;;;11.30;99.90;;;;;;4999703;28;20033;-75
2022/04/16 05:18:22;;;;;;;19.95;14.43;;;11.30;99.90;;;;;;5017221;28;20052;-73
2022/04/16 05:20:48;;;;;;;18.20;15.07;;;11.40;99.90;;;;;;4999568;28;20029;-74
2022/04/16 05:23:14;;;;;;;17.95;15.32;;;11.40;99.90;;;;;;5016816;28;20063;-74
2022/04/16 05:25:39;;;;;;;24.17;16.50;;;11.40;99.90;;;;;;4992854;28;20030;-74
2022/04/16 05:28:06;;;;;;;21.73;16.95;;;11.40;99.90;;;;;;4998063;28;20375;-74
2022/04/16 05:30:38;;;;;;;24.15;16.77;;;11.40;99.90;;;;;;4999183;28;20509;-74
2022/04/16 05:33:16;;;;;;;23.80;16.77;;;11.40;99.90;;;;;;4990192;28;20402;-75
2022/04/16 05:35:45;;;;;;;20.10;17.70;;;11.40;99.90;;;;;;5011841;28;20033;-76
2022/04/16 05:38:11;;;;;;;24.60;15.73;;;11.50;99.90;;;;;;5017311;28;20490;-76
2022/04/16 05:40:36;;;;;;;23.52;16.77;;;11.60;99.90;;;;;;5016437;28;20030;-77
2022/04/16 05:43:02;;;;;;;22.85;17.50;;;11.60;99.90;;;;;;5017939;28;20026;-77
2022/04/16 05:45:28;;;;;;;24.33;17.90;;;11.60;99.90;;;;;;5018306;28;20022;-76
2022/04/16 05:47:54;;;;;;;20.75;15.45;;;11.60;99.90;;;;;;4999993;28;20030;-76
2022/04/16 05:50:20;;;;;;;20.77;15.93;;;11.60;99.90;;;;;;4999543;28;20048;-76
2022/04/16 05:52:46;;;;;;;31.30;17.75;;;11.60;99.90;;;;;;5016947;28;20052;-77
2022/04/16 05:55:12;;;;;;;21.83;17.08;;;11.60;99.90;;;;;;4999815;28;20057;-77
2022/04/16 05:57:39;;;;;;;19.13;16.25;;;11.60;99.90;;;;;;5017326;28;20508;-77
2022/04/16 06:00:06;;;;;;;22.02;16.98;;;11.70;99.90;;;;;;5017045;28;20018;-76
2022/04/16 06:02:32;;;;;;;19.92;16.30;;;11.70;99.90;;;;;;4999465;28;20505;-76
2022/04/16 06:04:58;;;;;;;17.25;14.40;;;11.70;99.90;;;;;;5017352;28;20014;-77
2022/04/16 06:07:23;;;;;;;20.17;15.00;;;11.80;99.90;;;;;;4998620;28;20105;-77
2022/04/16 06:09:49;;;;;;;18.25;15.45;;;11.80;99.90;;;;;;5014100;28;20424;-77
2022/04/16 06:12:15;;;;;;;16.45;13.85;;;11.80;99.90;;;;;;5016757;28;20030;-76
2022/04/16 06:14:41;;;;;;;16.42;12.68;;;11.80;99.90;;;;;;4989996;28;20026;-77
2022/04/16 06:17:07;;;;;;;21.58;13.30;;;11.90;99.90;;;;;;5016158;28;20425;-76
2022/04/16 06:19:33;;;;;;;14.38;12.15;;;11.80;99.90;;;;;;5008845;28;20033;-77
2022/04/16 06:21:58;;;;;;;18.48;12.52;;;11.80;99.90;;;;;;5002294;28;20073;-77
2022/04/16 06:24:24;;;;;;;16.45;11.75;;;11.80;99.90;;;;;;5017175;28;20030;-77
2022/04/16 06:26:50;;;;;;;14.13;12.63;;;11.80;99.90;;;;;;5016957;28;20026;-77
2022/04/16 06:29:16;;;;;;;15.63;13.55;;;11.70;99.90;;;;;;4999589;28;20057;-77
2022/04/16 06:31:43;;;;;;;18.38;13.23;;;11.70;99.90;;;;;;4999450;28;20057;-77
2022/04/16 06:34:09;;;;;;;16.23;12.98;;;11.70;99.90;;;;;;5017094;28;20100;-76
2022/04/16 06:36:34;;;;;;;16.88;13.88;;;11.80;99.90;;;;;;5016615;28;20022;-77
2022/04/16 06:39:00;;;;;;;20.20;14.75;;;11.80;99.90;;;;;;5016917;28;20401;-76
2022/04/16 06:41:26;;;;;;;17.55;14.25;;;11.80;99.90;;;;;;4999369;28;20022;-76
2022/04/16 06:43:52;;;;;;;16.25;13.88;;;11.90;99.90;;;;;;5017017;28;20026;-77
2022/04/16 06:46:18;;;;;;;16.35;14.57;;;11.80;99.90;;;;;;5016768;28;20068;-76
2022/04/16 06:48:44;;;;;;;13.88;12.27;;;11.90;99.90;;;;;;5016670;28;20022;-77
2022/04/16 06:51:09;;;;;;;19.02;14.93;;;11.90;99.90;;;;;;4998970;28;20029;-76
2022/04/16 06:53:35;;;;;;;19.10;13.40;;;11.90;99.90;;;;;;5014244;28;20058;-77
2022/04/16 06:56:01;;;;;;;17.55;11.90;;;12.00;99.90;;;;;;5014112;28;20026;-83
2022/04/16 06:58:31;;;;;;;15.48;12.13;;;12.10;99.90;;;;;;5015735;28;20511;-78
2022/04/16 07:00:57;;;;;;;12.13;10.83;;;12.20;99.90;;;;;;5012019;28;20018;-77
2022/04/16 07:03:23;;;;;;;14.10;12.38;;;12.20;99.90;;;;;;5013500;28;20030;-77
2022/04/16 07:05:49;;;;;;;16.17;13.48;;;12.30;99.90;;;;;;5019788;28;20026;-77
2022/04/16 07:08:15;;;;;;;14.02;11.73;;;12.40;99.90;;;;;;5020151;28;20014;-78
2022/04/16 07:10:41;;;;;;;17.83;13.98;;;12.40;99.90;;;;;;5018993;28;20121;-77
2022/04/16 07:13:07;;;;;;;14.80;12.40;;;12.40;99.90;;;;;;5019683;28;20053;-77
2022/04/16 07:15:33;;;;;;;15.40;12.80;;;12.40;99.90;;;;;;5019451;28;20493;-77
2022/04/16 07:18:00;;;;;;;17.08;11.40;;;12.50;99.90;;;;;;5019683;28;20018;-77
2022/04/16 07:20:26;;;;;;;15.10;10.95;;;12.50;99.90;;;;;;5014631;28;20079;-79
2022/04/16 07:22:52;;;;;;;17.20;13.07;;;12.60;99.90;;;;;;5017066;28;20485;-81
2022/04/16 07:25:18;;;;;;;12.30;10.85;;;12.60;99.90;;;;;;5020168;28;20030;-82
2022/04/16 07:27:44;;;;;;;14.30;10.55;;;12.70;99.90;;;;;;5018495;28;20084;-83
2022/04/16 07:30:10;;;;;;;13.73;11.77;;;12.70;99.90;;;;;;5015689;28;20038;-77
2022/04/16 07:32:36;;;;;;;15.98;11.38;;;12.70;99.90;;;;;;5014506;28;20022;-78
2022/04/16 07:35:03;;;;;;;11.90;10.68;;;12.70;99.90;;;;;;5017918;28;20025;-80
2022/04/16 07:37:29;;;;;;;12.63;10.93;;;12.70;99.90;;;;;;5017670;28;20036;-77
2022/04/16 07:39:55;;;;;;;11.73;10.23;;;12.60;99.90;;;;;;5019638;28;20034;-82
2022/04/16 07:42:20;;;;;;;10.48;9.00;;;12.70;99.90;;;;;;5018264;28;20021;-78
2022/04/16 07:44:46;;;;;;;12.73;10.02;;;12.70;99.90;;;;;;5018189;28;20034;-78
2022/04/16 07:47:12;;;;;;;11.98;9.95;;;12.80;99.90;;;;;;5019348;28;20080;-78
2022/04/16 07:49:38;;;;;;;12.57;9.38;;;12.80;99.90;;;;;;5019331;28;20040;-78
2022/04/16 07:52:04;;;;;;;12.73;10.43;;;12.80;99.90;;;;;;5016662;28;20505;-80
2022/04/16 07:54:30;;;;;;;14.73;9.68;;;12.90;99.90;;;;;;5017547;28;20494;-81
2022/04/16 07:56:56;;;;;;;13.20;9.52;;;13.00;99.90;;;;;;5018246;28;20026;-80
2022/04/16 07:59:22;;;;;;;10.95;9.75;;;13.00;99.90;;;;;;5019028;28;20549;-80
2022/04/16 08:01:47;;;;;;;14.98;9.88;;;13.10;99.90;;;;;;5017739;28;20025;-81
2022/04/16 08:04:13;;;;;;;9.98;8.65;;;13.00;99.90;;;;;;5017555;28;20025;-80
2022/04/16 08:06:39;;;;;;;9.10;7.97;;;13.00;99.90;;;;;;5017583;28;20033;-80
2022/04/16 08:09:05;;;;;;;10.55;8.88;;;13.10;99.90;;;;;;5017695;28;20084;-81
2022/04/16 08:11:32;;;;;;;9.32;7.28;;;13.10;99.90;;;;;;5017882;28;20045;-81
2022/04/16 08:13:58;;;;;;;9.23;7.57;;;13.10;99.90;;;;;;5017523;28;20022;-81
2022/04/16 08:16:24;;;;;;;10.45;7.70;;;13.20;99.90;;;;;;5018546;28;20026;-79
2022/04/16 08:18:50;;;;;;;7.75;6.95;;;13.20;99.90;;;;;;5017428;28;20071;-80
2022/04/16 08:21:16;;;;;;;9.00;6.50;;;13.30;99.90;;;;;;5019002;28;20026;-80
2022/04/16 08:23:55;;;;;;;9.02;6.88;;;13.40;99.90;;;;;;5017574;28;20040;-80
2022/04/16 08:26:22;;;;;;;11.27;7.85;;;13.50;99.90;;;;;;5018249;28;20112;-80
2022/04/16 08:28:49;;;;;;;9.32;7.07;;;13.40;99.90;;;;;;5018703;28;20036;-81
2022/04/16 08:31:15;;;;;;;9.38;7.60;;;13.40;99.90;;;;;;5016958;28;20042;-81
2022/04/16 08:33:41;;;;;;;9.00;7.80;;;13.40;99.90;;;;;;5018216;28;20489;-81
2022/04/16 08:36:06;;;;;;;9.88;8.00;;;13.30;99.90;;;;;;5016010;28;20026;-82
2022/04/16 08:38:32;;;;;;;9.07;7.35;;;13.40;99.90;;;;;;5008381;28;20026;-82
2022/04/16 08:41:01;;;;;;;7.35;6.53;;;13.50;99.90;;;;;;5016648;28;20026;-81
2022/04/16 08:43:28;;;;;;;9.20;7.75;;;13.40;99.90;;;;;;5017865;28;20503;-81
2022/04/16 08:45:56;;;;;;;8.70;7.38;;;13.40;99.90;;;;;;5014653;28;20021;-80
2022/04/16 08:48:23;;;;;;;9.20;7.22;;;13.40;99.90;;;;;;5017837;28;20022;-81
2022/04/16 08:50:49;;;;;;;7.85;6.97;;;13.50;99.90;;;;;;5017784;28;20025;-82
2022/04/16 08:53:15;;;;;;;8.75;6.95;;;13.60;99.90;;;;;;5016770;28;20057;-81
2022/04/16 08:55:41;;;;;;;7.97;7.18;;;13.70;99.90;;;;;;5015752;28;20029;-81
2022/04/16 08:58:07;;;;;;;8.10;7.30;;;13.80;99.90;;;;;;5017298;28;20064;-80
2022/04/16 09:00:33;;;;;;;9.23;6.82;;;13.80;99.90;;;;;;5017074;28;20029;-80
2022/04/16 09:03:03;;;;;;;7.38;6.68;;;13.80;99.90;;;;;;5016395;28;20022;-81
2022/04/16 09:05:29;;;;;;;8.83;7.07;;;13.80;99.90;;;;;;5016244;28;20026;-82
2022/04/16 09:07:58;;;;;;;8.60;7.35;;;13.80;99.90;;;;;;5017323;28;20068;-82
2022/04/16 09:10:28;;;;;;;9.70;7.00;;;13.80;99.90;;;;;;5017316;28;20092;-83
2022/04/16 09:13:01;;;;;;;7.40;6.32;;;13.70;99.90;;;;;;5016191;28;20551;-81
2022/04/16 09:15:28;;;;;;;7.25;6.55;;;13.80;99.90;;;;;;5017451;28;20034;-81
2022/04/16 09:18:07;;;;;;;8.52;6.68;;;13.70;99.90;;;;;;5016046;28;20465;-81
2022/04/16 09:20:37;;;;;;;9.93;6.35;;;13.70;99.90;;;;;;5016422;28;20473;-81
2022/04/16 09:23:21;;;;;;;8.93;7.15;;;13.60;99.90;;;;;;5015834;28;20095;-79
2022/04/16 09:25:48;;;;;;;9.02;6.70;;;13.70;99.90;;;;;;5011228;28;20022;-83
2022/04/16 09:28:18;;;;;;;12.82;7.25;;;14.00;99.90;;;;;;5018302;28;20390;-82
2022/04/16 09:30:51;;;;;;;9.10;6.90;;;14.10;99.90;;;;;;5017385;28;20018;-83
2022/04/16 09:33:18;;;;;;;9.43;7.88;;;14.30;99.90;;;;;;5016531;28;20390;-81
2022/04/16 09:35:46;;;;;;;8.40;7.05;;;14.40;99.90;;;;;;5015736;28;20017;-81
2022/04/16 09:38:12;;;;;;;10.90;7.00;;;14.40;99.90;;;;;;5017180;28;20018;-80
2022/04/16 09:40:38;;;;;;;11.35;7.85;;;14.50;99.90;;;;;;5015998;28;20057;-80
2022/04/16 09:43:08;;;;;;;8.80;7.25;;;14.60;99.90;;;;;;5016930;28;20034;-80
2022/04/16 09:45:37;;;;;;;10.02;7.80;;;14.60;99.90;;;;;;5015701;28;20022;-79
2022/04/16 09:48:07;;;;;;;8.18;6.72;;;14.60;99.90;;;;;;5015695;28;20393;-80
2022/04/16 09:50:34;;;;;;;10.13;6.90;;;14.80;99.90;;;;;;5017269;28;20030;-80
2022/04/16 09:53:03;;;;;;;11.23;7.45;;;14.80;99.90;;;;;;5014975;28;20065;-81
2022/04/16 09:55:29;;;;;;;7.15;6.38;;;14.90;99.90;;;;;;5017009;28;20029;-80
2022/04/16 09:58:04;;;;;;;7.85;6.28;;;15.00;99.90;;;;;;5016713;28;20029;-80
2022/04/16 10:00:32;;;;;;;7.50;6.32;;;15.00;99.90;;;;;;5016601;28;20026;-81
2022/04/16 10:03:00;;;;;;;8.80;6.38;;;15.10;99.90;;;;;;5014031;28;20026;-82
2022/04/16 10:05:26;;;;;;;7.50;6.18;;;15.10;99.90;;;;;;5015214;28;20477;-82
2022/04/16 10:07:53;;;;;;;6.22;5.45;;;15.20;99.90;;;;;;5015726;28;20072;-80
2022/04/16 10:10:31;;;;;;;8.70;5.80;;;15.20;99.90;;;;;;5016598;28;20022;-80
2022/04/16 10:13:07;;;;;;;12.98;6.15;;;15.30;99.90;;;;;;5014315;28;20026;-81
2022/04/16 10:15:57;;;;;;;7.30;6.43;;;15.20;99.90;;;;;;5014736;28;20069;-82
2022/04/16 10:18:27;;;;;;;6.10;4.80;;;15.20;99.90;;;;;;5015023;28;20018;-80
2022/04/16 10:20:57;;;;;;;8.25;6.20;;;15.30;99.90;;;;;;5016545;28;20030;-81
2022/04/16 10:23:31;;;;;;;6.30;5.68;;;15.40;99.90;;;;;;5016340;28;20014;-81
2022/04/16 10:26:09;;;;;;;9.48;6.40;;;15.60;99.90;;;;;;5016660;28;20117;-81
2022/04/16 10:28:43;;;;;;;8.55;5.57;;;15.80;99.90;;;;;;5015419;28;20493;-81
2022/04/16 10:31:47;;;;;;;8.02;6.18;;;16.00;99.90;;;;;;5016605;28;20444;-83
2022/04/16 10:34:16;;;;;;;7.28;5.88;;;15.90;99.90;;;;;;5002073;28;20076;-83
2022/04/16 10:36:51;;;;;;;7.05;5.72;;;15.90;99.90;;;;;;5016689;28;20108;-81
2022/04/16 10:39:20;;;;;;;6.15;5.25;;;15.70;99.90;;;;;;5020317;28;20022;-83
2022/04/16 10:41:59;;;;;;;7.80;5.25;;;15.90;99.90;;;;;;5020073;28;20503;-82
2022/04/16 10:44:26;;;;;;;7.53;4.65;;;15.90;99.90;;;;;;5020362;28;20022;-83
2022/04/16 10:46:54;;;;;;;9.82;5.72;;;15.90;99.90;;;;;;5020475;28;20025;-83
2022/04/16 10:49:25;;;;;;;6.90;5.57;;;16.00;99.90;;;;;;5020141;28;20057;-83
2022/04/16 10:51:52;;;;;;;7.80;6.80;;;15.90;99.90;;;;;;5011953;28;20025;-82
2022/04/16 10:54:34;;;;;;;6.53;5.50;;;15.90;99.90;;;;;;5016342;28;20038;-83
2022/04/16 10:57:01;;;;;;;7.38;6.43;;;15.90;99.90;;;;;;5001729;28;20516;-84
2022/04/16 10:59:44;;;;;;;7.10;5.47;;;15.90;99.90;;;;;;5019838;28;20036;-83
2022/04/16 11:02:23;;;;;;;7.43;5.78;;;15.80;99.90;;;;;;5017790;28;20029;-80
2022/04/16 11:05:02;;;;;;;6.15;5.22;;;15.70;99.90;;;;;;5017443;28;20505;-84
2022/04/16 11:07:29;;;;;;;6.93;5.70;;;15.80;99.90;;;;;;5019602;28;20072;-84
2022/04/16 11:09:56;;;;;;;6.15;4.78;;;15.80;99.90;;;;;;5010443;28;20406;-84
2022/04/16 11:12:23;;;;;;;8.25;5.68;;;15.90;99.90;;;;;;5018116;28;20026;-84
2022/04/16 11:14:50;;;;;;;6.03;5.30;;;16.00;99.90;;;;;;5019674;28;20025;-83
2022/04/16 11:17:16;;;;;;;5.70;4.75;;;16.10;99.90;;;;;;5019763;28;20092;-85
2022/04/16 11:19:48;;;;;;;8.02;5.45;;;16.30;99.90;;;;;;5019867;28;20036;-84
2022/04/16 11:22:15;;;;;;;7.60;5.40;;;16.40;99.90;;;;;;5019638;28;20030;-83
2022/04/16 11:24:41;;;;;;;7.20;4.93;;;16.50;99.90;;;;;;5019863;28;20030;-83
2022/04/16 11:35:23;;;;;;;8.60;5.07;;;16.90;99.90;;;;;;5016658;28;20559;-82
2022/04/16 11:37:56;;;;;;;9.33;5.00;;;16.90;99.90;;;;;;5018559;28;20054;-83
2022/04/16 11:40:22;;;;;;;5.22;4.07;;;17.00;99.90;;;;;;5013799;28;20048;-81
2022/04/16 11:42:48;;;;;;;6.13;4.13;;;17.10;99.90;;;;;;5013205;28;20517;-82
2022/04/16 11:45:16;;;;;;;6.05;4.47;;;17.10;99.90;;;;;;4997446;28;20022;-83
2022/04/16 11:47:42;;;;;;;7.65;4.30;;;17.20;99.90;;;;;;4998813;28;20048;-84
2022/04/16 11:50:13;;;;;;;6.55;4.30;;;17.40;99.90;;;;;;5017948;28;20050;-84
2022/04/16 11:52:39;;;;;;;5.35;4.10;;;17.60;99.90;;;;;;5017803;28;20057;-83
2022/04/16 11:55:22;;;;;;;6.95;4.05;;;17.80;99.90;;;;;;5018504;28;20068;-83
2022/04/16 11:57:52;;;;;;;5.85;4.22;;;17.90;99.90;;;;;;5018442;28;20018;-83
2022/04/16 12:00:20;;;;;;;8.63;5.18;;;17.90;99.90;;;;;;5018404;28;20014;-83
2022/04/16 12:02:49;;;;;;;6.00;4.55;;;18.10;99.90;;;;;;5000936;28;20026;-82
2022/04/16 12:05:17;;;;;;;5.55;4.03;;;18.10;99.90;;;;;;4999260;28;20014;-80
2022/04/16 12:07:46;;;;;;;5.97;4.22;;;18.20;99.90;;;;;;5018088;28;20029;-80
2022/04/16 12:10:16;;;;;;;6.88;4.22;;;18.30;99.90;;;;;;5018092;28;20022;-80
2022/04/16 12:12:45;;;;;;;;;;;18.20;99.90;;;;;;5000906;28;20109;-83
2022/04/16 12:15:12;;;;;;;7.30;4.13;;;18.30;99.90;;;;;;5000248;28;19914;-82
2022/04/16 12:17:40;;;;;;;6.63;4.50;;;18.40;99.90;;;;;;5001332;28;20487;-81
2022/04/16 12:20:08;;;;;;;7.30;4.38;;;18.40;99.90;;;;;;4981843;28;20054;-80
2022/04/16 12:22:49;;;;;;;4.55;3.78;;;18.50;99.90;;;;;;4981702;28;20073;-80
2022/04/16 12:25:22;;;;;;;8.48;5.18;;;18.70;99.90;;;;;;5016530;28;20025;-80
2022/04/16 12:27:50;;;;;;;8.30;4.20;;;18.80;99.90;;;;;;5018153;28;20497;-80
2022/04/16 12:30:18;;;;;;;5.68;4.28;;;18.80;99.90;;;;;;5018196;28;20100;-81
2022/04/16 12:32:55;;;;;;;8.50;5.05;;;18.70;99.90;;;;;;5000563;28;20485;-81
2022/04/16 12:35:21;;;;;;;4.85;4.22;;;18.70;99.90;;;;;;5000223;28;20517;-81
2022/04/16 12:37:47;;;;;;;4.88;4.15;;;18.90;99.90;;;;;;5017776;28;20026;-82
2022/04/16 12:40:13;;;;;;;5.80;4.32;;;19.00;99.90;;;;;;5000265;28;20473;-81
2022/04/16 12:42:39;;;;;;;6.50;4.13;;;19.10;99.90;;;;;;5017972;28;20104;-80
2022/04/16 12:45:05;;;;;;;5.22;4.00;;;19.20;99.90;;;;;;5017988;28;20018;-81
2022/04/16 12:47:31;;;;;;;7.72;4.22;;;19.30;99.90;;;;;;5017781;28;20018;-81
2022/04/16 12:49:57;;;;;;;7.13;4.60;;;19.50;99.90;;;;;;5000183;28;20033;-81
2022/04/16 12:52:23;;;;;;;9.82;4.88;;;19.60;99.90;;;;;;5017253;28;20038;-80
2022/04/16 12:54:52;;;;;;;8.85;5.05;;;19.70;99.90;;;;;;5018266;28;20091;-79
2022/04/16 12:57:18;;;;;;;11.02;5.40;;;19.70;99.90;;;;;;4999605;28;20029;-82